createdAt,value
2023-04-08T00:01:17.163Z,8.23
2023-04-08T00:03:46.394Z,7.55
2023-04-08T00:06:17.154Z,6.65
2023-04-08T00:08:46.368Z,6.75
2023-04-08T00:11:16.008Z,6.53
2023-04-08T00:13:45.189Z,7.55
2023-04-08T00:16:14.350Z,7.57
2023-04-08T00:18:43.800Z,7.60
2023-04-08T00:21:13.816Z,7.18
2023-04-08T00:23:44.411Z,8.00
2023-04-08T00:26:13.606Z,7.50
2023-04-08T00:28:43.911Z,8.02
2023-04-08T00:31:13.067Z,8.23
2023-04-08T00:33:42.245Z,7.93
2023-04-08T00:36:12.950Z,7.75
2023-04-08T00:38:43.539Z,7.60
2023-04-08T00:41:12.875Z,8.30
2023-04-08T00:43:42.078Z,8.27
2023-04-08T00:46:11.418Z,8.27
2023-04-08T00:48:41.029Z,9.07
2023-04-08T00:51:11.289Z,8.82
2023-04-08T00:53:40.796Z,8.40
2023-04-08T00:56:11.858Z,7.28
2023-04-08T00:58:41.608Z,7.82
2023-04-08T01:01:16.291Z,7.25
2023-04-08T01:03:57.938Z,8.02
2023-04-08T01:06:37.446Z,8.13
2023-04-08T01:09:07.415Z,8.63
2023-04-08T01:11:43.023Z,8.63
2023-04-08T01:14:16.887Z,7.97
2023-04-08T01:16:48.031Z,8.75
2023-04-08T01:19:25.360Z,8.68
2023-04-08T01:21:56.341Z,9.55
2023-04-08T01:24:30.783Z,8.77
2023-04-08T01:27:02.949Z,9.50
2023-04-08T01:29:33.034Z,9.60
2023-04-08T01:32:03.279Z,9.65
2023-04-08T01:34:33.914Z,9.10
2023-04-08T01:37:04.314Z,8.68
2023-04-08T01:39:35.297Z,7.30
2023-04-08T01:42:06.929Z,7.55
2023-04-08T01:44:37.286Z,8.07
2023-04-08T01:47:06.725Z,8.00
2023-04-08T01:49:36.837Z,7.72
2023-04-08T01:52:07.968Z,8.15
2023-04-08T01:54:37.420Z,7.82
2023-04-08T01:57:09.972Z,8.15
2023-04-08T01:59:41.700Z,8.98
2023-04-08T02:02:12.218Z,9.50
2023-04-08T02:04:41.604Z,9.93
2023-04-08T02:07:10.796Z,9.35
2023-04-08T02:09:39.943Z,10.23
2023-04-08T02:12:10.656Z,9.82
2023-04-08T02:14:39.978Z,10.60
2023-04-08T02:17:15.642Z,10.60
2023-04-08T02:19:50.129Z,10.05
2023-04-08T02:22:25.623Z,10.27
2023-04-08T02:24:55.128Z,9.68
2023-04-08T02:27:28.172Z,9.70
2023-04-08T02:29:59.048Z,8.90
2023-04-08T02:32:28.943Z,9.20
2023-04-08T02:34:59.131Z,8.40
2023-04-08T02:37:29.936Z,8.25
2023-04-08T02:39:59.429Z,8.52
2023-04-08T02:42:29.927Z,8.45
2023-04-08T02:44:59.264Z,7.57
2023-04-08T02:47:28.307Z,7.93
2023-04-08T02:49:57.369Z,7.35
2023-04-08T02:52:26.371Z,7.28
2023-04-08T02:54:55.529Z,7.25
2023-04-08T02:57:24.725Z,7.00
2023-04-08T02:59:55.164Z,6.85
2023-04-08T03:02:24.425Z,7.50
2023-04-08T03:04:53.576Z,7.47
2023-04-08T03:07:22.741Z,7.43
2023-04-08T03:09:53.038Z,7.88
2023-04-08T03:12:22.235Z,7.88
2023-04-08T03:14:51.776Z,7.80
2023-04-08T03:17:22.649Z,8.05
2023-04-08T03:19:51.728Z,7.78
2023-04-08T03:22:20.956Z,7.38
2023-04-08T03:24:50.156Z,7.28
2023-04-08T03:27:19.331Z,8.07
2023-04-08T03:29:48.579Z,7.53
2023-04-08T03:32:17.736Z,7.47
2023-04-08T03:34:51.261Z,7.05
2023-04-08T03:37:20.483Z,6.72
2023-04-08T03:39:49.570Z,6.65
2023-04-08T03:42:18.655Z,6.90
2023-04-08T03:44:47.960Z,6.45
2023-04-08T03:47:17.202Z,6.53
2023-04-08T03:49:47.793Z,6.72
2023-04-08T03:52:16.938Z,6.95
2023-04-08T03:54:45.974Z,7.05
2023-04-08T03:57:15.064Z,6.53
2023-04-08T03:59:44.320Z,6.57
2023-04-08T04:02:13.492Z,6.45
2023-04-08T04:04:42.757Z,6.00
2023-04-08T04:07:13.420Z,6.97
2023-04-08T04:09:42.516Z,6.70
2023-04-08T04:12:11.650Z,6.53
2023-04-08T04:14:40.856Z,6.60
2023-04-08T04:17:10.000Z,6.75
2023-04-08T04:19:39.100Z,5.80
2023-04-08T04:22:08.326Z,5.95
2023-04-08T04:24:38.809Z,5.57
2023-04-08T04:27:07.975Z,5.97
2023-04-08T04:29:37.113Z,5.43
2023-04-08T04:32:06.762Z,5.32
2023-04-08T04:34:35.891Z,5.18
2023-04-08T04:37:05.017Z,4.43
2023-04-08T04:39:34.168Z,5.50
2023-04-08T04:42:04.818Z,4.78
2023-04-08T04:44:33.949Z,4.80
2023-04-08T04:47:03.053Z,4.65
2023-04-08T04:49:32.220Z,5.07
2023-04-08T04:52:01.594Z,5.00
2023-04-08T04:54:30.779Z,5.32
2023-04-08T04:57:00.001Z,5.63
2023-04-08T04:59:30.765Z,5.22
2023-04-08T05:02:00.100Z,5.15
2023-04-08T05:04:29.623Z,5.57
2023-04-08T05:07:01.540Z,5.32
2023-04-08T05:09:31.011Z,5.00
2023-04-08T05:12:00.255Z,5.18
2023-04-08T05:14:32.192Z,4.80
2023-04-08T05:17:01.248Z,5.30
2023-04-08T05:19:30.383Z,4.82
2023-04-08T05:21:59.548Z,5.53
2023-04-08T05:24:28.838Z,5.50
2023-04-08T05:26:58.045Z,5.32
2023-04-08T05:29:27.798Z,5.43
2023-04-08T05:31:58.340Z,5.68
2023-04-08T05:34:27.439Z,5.40
2023-04-08T05:36:58.255Z,5.70
2023-04-08T05:39:33.728Z,5.60
2023-04-08T05:42:03.284Z,5.55
2023-04-08T05:44:32.377Z,5.72
2023-04-08T05:47:03.057Z,6.20
2023-04-08T05:49:32.252Z,6.40
2023-04-08T05:52:01.454Z,5.80
2023-04-08T05:54:32.523Z,6.25
2023-04-08T05:57:01.872Z,6.72
2023-04-08T05:59:31.174Z,6.10
2023-04-08T06:02:00.437Z,5.63
2023-04-08T06:04:31.397Z,6.05
2023-04-08T06:07:03.051Z,6.35
2023-04-08T06:09:32.309Z,5.82
2023-04-08T06:12:01.399Z,5.80
2023-04-08T06:14:30.710Z,5.60
2023-04-08T06:16:59.914Z,5.53
2023-04-08T06:19:30.698Z,6.20
2023-04-08T06:21:59.939Z,5.40
2023-04-08T06:24:29.549Z,6.32
2023-04-08T06:26:58.839Z,5.75
2023-04-08T06:29:29.983Z,5.82
2023-04-08T06:31:59.131Z,5.82
2023-04-08T06:34:28.361Z,6.00
2023-04-08T06:36:58.868Z,5.88
2023-04-08T06:39:28.188Z,6.32
2023-04-08T06:41:58.249Z,6.15
2023-04-08T06:44:50.574Z,6.20
2023-04-08T06:47:19.707Z,5.82
2023-04-08T06:49:48.925Z,6.88
2023-04-08T06:52:19.299Z,6.05
2023-04-08T06:54:48.259Z,5.90
2023-04-08T06:57:17.255Z,5.60
2023-04-08T06:59:46.829Z,5.53
2023-04-08T07:02:16.719Z,5.53
2023-04-08T07:04:47.010Z,5.47
2023-04-08T07:07:18.909Z,4.78
2023-04-08T07:09:50.089Z,4.25
2023-04-08T07:12:19.176Z,4.13
2023-04-08T07:14:48.168Z,4.40
2023-04-08T07:17:17.312Z,4.05
2023-04-08T07:19:46.751Z,3.53
2023-04-08T07:22:16.379Z,3.58
2023-04-08T07:24:49.787Z,3.28
2023-04-08T07:27:20.447Z,2.83
2023-04-08T07:29:54.535Z,3.35
2023-04-08T07:32:23.785Z,3.40
2023-04-08T07:34:52.854Z,2.92
2023-04-08T07:37:21.988Z,3.10
2023-04-08T07:39:51.406Z,2.95
2023-04-08T07:42:22.450Z,3.15
2023-04-08T07:44:52.422Z,2.97
2023-04-08T07:47:21.880Z,2.78
2023-04-08T07:49:51.734Z,2.60
2023-04-08T07:52:21.021Z,2.75
2023-04-08T07:54:50.349Z,2.33
2023-04-08T07:57:21.493Z,2.50
2023-04-08T07:59:51.293Z,2.80
2023-04-08T08:02:20.600Z,2.83
2023-04-08T08:04:49.913Z,2.70
2023-04-08T08:07:18.922Z,2.65
2023-04-08T08:09:47.953Z,2.80
2023-04-08T08:12:17.022Z,2.38
2023-04-08T08:14:47.561Z,2.47
2023-04-08T08:17:16.783Z,2.72
2023-04-08T08:19:45.835Z,2.72
2023-04-08T08:22:14.825Z,2.30
2023-04-08T08:24:44.023Z,2.40
2023-04-08T08:27:13.077Z,2.28
2023-04-08T08:29:42.144Z,1.80
2023-04-08T08:32:12.541Z,2.20
2023-04-08T08:34:41.614Z,2.30
2023-04-08T08:37:10.871Z,2.30
2023-04-08T08:39:40.130Z,2.47
2023-04-08T08:42:19.413Z,1.90
2023-04-08T08:44:48.609Z,2.40
2023-04-08T08:47:19.381Z,2.22
2023-04-08T08:49:49.566Z,1.92
2023-04-08T08:52:18.914Z,2.25
2023-04-08T08:54:48.266Z,2.28
2023-04-08T08:57:20.770Z,2.30
2023-04-08T08:59:49.951Z,2.00
2023-04-08T09:02:29.245Z,2.20
2023-04-08T09:05:00.160Z,2.10
2023-04-08T09:07:30.958Z,2.30
2023-04-08T09:10:00.964Z,2.20
2023-04-08T09:12:31.453Z,2.55
2023-04-08T09:15:07.982Z,1.93
2023-04-08T09:17:39.701Z,2.30
2023-04-08T09:20:11.930Z,2.47
2023-04-08T09:23:01.065Z,2.45
2023-04-08T09:25:32.349Z,2.30
2023-04-08T09:30:34.180Z,1.80
2023-04-08T09:35:36.597Z,2.00
2023-04-08T09:38:05.761Z,1.70
2023-04-08T09:40:36.912Z,2.25
2023-04-08T09:43:09.609Z,2.08
2023-04-08T09:45:42.842Z,2.20
2023-04-08T09:48:18.692Z,1.95
2023-04-08T09:50:51.281Z,2.13
2023-04-08T09:53:26.501Z,2.28
2023-04-08T09:55:58.892Z,2.20
2023-04-08T09:58:31.541Z,2.05
2023-04-08T10:01:00.964Z,2.00
2023-04-08T10:03:36.229Z,1.98
2023-04-08T10:06:06.624Z,1.85
2023-04-08T10:08:36.597Z,2.30
2023-04-08T10:11:06.500Z,2.08
2023-04-08T10:13:36.020Z,2.50
2023-04-08T10:16:22.179Z,2.42
2023-04-08T10:18:56.193Z,2.35
2023-04-08T10:21:38.807Z,2.15
2023-04-08T10:24:09.401Z,2.22
2023-04-08T10:26:43.711Z,2.22
2023-04-08T10:29:46.501Z,2.28
2023-04-08T10:32:31.275Z,2.10
2023-04-08T10:35:01.741Z,2.38
2023-04-08T10:37:30.812Z,2.33
2023-04-08T10:40:00.075Z,2.42
2023-04-08T10:42:29.860Z,2.35
2023-04-08T10:45:03.686Z,2.47
2023-04-08T10:47:33.039Z,2.20
2023-04-08T10:50:13.206Z,3.20
2023-04-08T10:52:48.475Z,2.80
2023-04-08T10:55:18.275Z,2.92
2023-04-08T10:57:47.876Z,2.80
2023-04-08T11:00:20.306Z,2.53
2023-04-08T11:02:49.421Z,2.83
2023-04-08T11:05:23.535Z,2.60
2023-04-08T11:07:53.648Z,3.17
2023-04-08T11:10:22.905Z,2.75
2023-04-08T11:12:52.053Z,3.40
2023-04-08T11:15:21.325Z,2.50
2023-04-08T11:17:51.074Z,2.47
2023-04-08T11:20:22.095Z,3.70
2023-04-08T11:22:53.116Z,3.17
2023-04-08T11:25:22.838Z,2.60
2023-04-08T11:27:52.185Z,3.20
2023-04-08T11:30:21.894Z,3.78
2023-04-08T11:32:52.591Z,3.63
2023-04-08T11:35:23.256Z,2.72
2023-04-08T11:37:54.488Z,3.20
2023-04-08T11:40:24.559Z,3.35
2023-04-08T11:42:54.432Z,3.67
2023-04-08T11:45:23.931Z,3.45
2023-04-08T11:47:54.163Z,3.13
2023-04-08T11:50:30.061Z,3.67
2023-04-08T11:52:59.737Z,4.22
2023-04-08T11:55:30.443Z,3.47
2023-04-08T11:58:04.478Z,3.63
2023-04-08T12:00:33.564Z,3.30
2023-04-08T12:03:02.652Z,3.20
2023-04-08T12:05:33.166Z,3.50
2023-04-08T12:08:02.450Z,3.57
2023-04-08T12:10:31.789Z,3.25
2023-04-08T12:13:00.888Z,3.50
2023-04-08T12:15:30.126Z,3.47
2023-04-08T12:17:59.276Z,3.70
2023-04-08T12:20:28.321Z,3.50
2023-04-08T12:22:58.730Z,3.67
2023-04-08T12:25:27.863Z,3.57
2023-04-08T12:27:56.887Z,3.30
2023-04-08T12:30:25.942Z,4.15
2023-04-08T12:32:55.427Z,3.72
2023-04-08T12:35:24.641Z,3.58
2023-04-08T12:37:53.831Z,3.75
2023-04-08T12:40:24.247Z,4.50
2023-04-08T12:42:53.302Z,4.13
2023-04-08T12:45:22.470Z,4.00
2023-04-08T12:47:51.706Z,4.28
2023-04-08T12:50:20.947Z,5.00
2023-04-08T12:52:50.029Z,4.45
2023-04-08T12:55:19.315Z,5.15
2023-04-08T12:57:49.868Z,5.40
2023-04-08T13:00:19.540Z,4.75
2023-04-08T13:02:48.743Z,4.60
2023-04-08T13:05:19.707Z,4.78
2023-04-08T13:07:52.807Z,5.40
2023-04-08T13:10:21.862Z,5.63
2023-04-08T13:12:52.284Z,5.57
2023-04-08T13:15:21.390Z,5.50
2023-04-08T13:17:51.053Z,6.20
2023-04-08T13:20:20.033Z,5.78
2023-04-08T13:22:49.022Z,5.72
2023-04-08T13:25:18.038Z,5.88
2023-04-08T13:27:47.060Z,6.50
2023-04-08T13:30:17.718Z,6.30
2023-04-08T13:32:46.804Z,5.88
2023-04-08T13:35:15.937Z,6.35
2023-04-08T13:37:45.036Z,6.35
2023-04-08T13:40:14.570Z,6.65
2023-04-08T13:42:43.621Z,5.97
2023-04-08T13:45:12.912Z,5.10
2023-04-08T13:47:43.372Z,5.43
2023-04-08T13:50:12.647Z,5.83
2023-04-08T13:52:41.676Z,5.55
2023-04-08T13:55:10.834Z,5.18
2023-04-08T13:57:39.892Z,5.13
2023-04-08T14:00:10.349Z,5.25
2023-04-08T14:02:39.574Z,5.97
2023-04-08T14:05:10.848Z,4.53
2023-04-08T14:07:39.898Z,5.85
2023-04-08T14:10:10.253Z,5.15
2023-04-08T14:12:39.321Z,5.75
2023-04-08T14:15:09.709Z,5.30
2023-04-08T14:17:38.829Z,4.67
2023-04-08T14:20:10.418Z,5.40
2023-04-08T14:22:39.412Z,5.55
2023-04-08T14:25:09.183Z,5.82
2023-04-08T14:27:47.528Z,5.38
2023-04-08T14:30:24.132Z,5.30
2023-04-08T14:32:53.169Z,6.05
2023-04-08T14:35:24.818Z,6.38
2023-04-08T14:37:53.843Z,5.83
2023-04-08T14:40:23.031Z,6.43
2023-04-08T14:42:52.173Z,5.90
2023-04-08T14:45:21.937Z,6.20
2023-04-08T14:47:51.260Z,6.10
2023-04-08T14:50:20.608Z,6.40
2023-04-08T14:52:51.368Z,5.90
2023-04-08T14:55:22.576Z,6.30
2023-04-08T15:00:20.636Z,5.72
2023-04-08T15:02:49.908Z,5.72
2023-04-08T15:05:19.650Z,5.60
2023-04-08T15:07:51.236Z,5.47
2023-04-08T15:10:20.522Z,7.18
2023-04-08T15:12:49.575Z,6.57
2023-04-08T15:15:18.798Z,6.57
2023-04-08T15:17:50.216Z,6.82
2023-04-08T15:20:21.093Z,6.70
2023-04-08T15:22:52.204Z,6.90
2023-04-08T15:25:21.406Z,6.93
2023-04-08T15:27:50.500Z,6.40
2023-04-08T15:30:24.511Z,6.82
2023-04-08T15:32:55.556Z,6.85
2023-04-08T15:35:27.274Z,6.65
2023-04-08T15:38:00.818Z,6.88
2023-04-08T15:40:32.287Z,6.75
2023-04-08T15:45:30.395Z,6.60
2023-04-08T15:47:59.682Z,6.63
2023-04-08T15:50:30.802Z,6.55
2023-04-08T15:53:01.228Z,6.28
2023-04-08T15:55:30.706Z,6.27
2023-04-08T15:57:59.860Z,8.48
2023-04-08T16:00:29.047Z,10.73
2023-04-08T16:02:58.280Z,18.13
2023-04-08T16:05:30.056Z,7.93
2023-04-08T16:08:00.774Z,18.85
2023-04-08T16:10:29.988Z,7.27
2023-04-08T16:12:59.170Z,6.18
2023-04-08T16:15:28.395Z,7.35
2023-04-08T16:17:57.750Z,10.88
2023-04-08T16:20:28.844Z,6.82
2023-04-08T16:22:57.997Z,6.63
2023-04-08T16:25:28.876Z,6.90
2023-04-08T16:27:57.940Z,6.30
2023-04-08T16:30:27.474Z,8.82
2023-04-08T16:32:56.861Z,6.55
2023-04-08T16:35:26.052Z,6.85
2023-04-08T16:37:55.564Z,6.88
2023-04-08T16:40:24.649Z,6.45
2023-04-08T16:42:55.152Z,6.10
2023-04-08T16:45:24.187Z,6.05
2023-04-08T16:47:53.391Z,7.00
2023-04-08T16:50:22.438Z,6.57
2023-04-08T16:52:51.720Z,7.13
2023-04-08T16:55:20.839Z,6.88
2023-04-08T16:57:49.908Z,7.47
2023-04-08T17:00:21.367Z,6.57
2023-04-08T17:02:50.976Z,6.50
2023-04-08T17:05:20.381Z,8.85
2023-04-08T17:07:49.518Z,7.82
2023-04-08T17:10:18.959Z,7.55
2023-04-08T17:12:47.991Z,6.88
2023-04-08T17:15:17.018Z,7.75
2023-04-08T17:17:48.038Z,7.10
2023-04-08T17:20:17.226Z,8.15
2023-04-08T17:22:46.380Z,7.90
2023-04-08T17:25:15.640Z,6.97
2023-04-08T17:27:44.669Z,7.30
2023-04-08T17:30:14.234Z,7.18
2023-04-08T17:32:43.335Z,6.78
2023-04-08T17:35:14.274Z,6.70
2023-04-08T17:37:43.277Z,7.05
2023-04-08T17:40:12.702Z,6.65
2023-04-08T17:42:42.072Z,6.03
2023-04-08T17:45:11.816Z,6.82
2023-04-08T17:47:42.898Z,6.50
2023-04-08T17:50:13.672Z,6.00
2023-04-08T17:52:44.475Z,7.63
2023-04-08T17:55:14.485Z,6.10
2023-04-08T17:57:43.885Z,5.13
2023-04-08T18:00:13.534Z,4.70
2023-04-08T18:02:42.815Z,4.65
2023-04-08T18:05:13.716Z,4.32
2023-04-08T18:07:42.782Z,4.28
2023-04-08T18:10:12.093Z,4.65
2023-04-08T18:12:41.155Z,5.30
2023-04-08T18:15:11.041Z,5.72
2023-04-08T18:17:40.124Z,7.10
2023-04-08T18:20:10.200Z,17.40
2023-04-08T18:22:40.704Z,11.55
2023-04-08T18:25:10.919Z,13.80
2023-04-08T18:27:40.683Z,19.13
2023-04-08T18:30:10.677Z,8.63
2023-04-08T18:32:39.768Z,9.70
2023-04-08T18:35:09.381Z,7.28
2023-04-08T18:37:38.870Z,4.90
2023-04-08T18:40:10.967Z,6.43
2023-04-08T18:42:40.015Z,5.65
2023-04-08T18:45:09.665Z,6.10
2023-04-08T18:47:38.746Z,4.78
2023-04-08T18:50:08.266Z,7.55
2023-04-08T18:52:37.571Z,4.75
2023-04-08T18:55:07.159Z,6.80
2023-04-08T18:57:38.709Z,5.07
2023-04-08T19:00:09.475Z,9.15
2023-04-08T19:02:38.881Z,7.80
2023-04-08T19:05:08.837Z,6.88
2023-04-08T19:07:38.186Z,5.57
2023-04-08T19:10:08.588Z,5.70
2023-04-08T19:12:39.173Z,5.32
2023-04-08T19:15:09.152Z,5.87
2023-04-08T19:17:38.383Z,6.20
2023-04-08T19:20:09.079Z,6.03
2023-04-08T19:22:38.788Z,5.28
2023-04-08T19:25:08.748Z,5.60
2023-04-08T19:27:39.416Z,5.95
2023-04-08T19:30:09.870Z,5.72
2023-04-08T19:32:39.331Z,5.67
2023-04-08T19:35:12.365Z,5.75
2023-04-08T19:37:41.638Z,5.68
2023-04-08T19:40:12.183Z,5.60
2023-04-08T19:42:44.687Z,5.47
2023-04-08T19:45:13.877Z,5.90
2023-04-08T19:47:43.899Z,5.50
2023-04-08T19:50:13.797Z,6.22
2023-04-08T19:52:42.919Z,6.38
2023-04-08T19:55:12.329Z,6.03
2023-04-08T19:57:43.500Z,6.22
2023-04-08T20:00:14.316Z,6.70
2023-04-08T20:02:43.614Z,6.93
2023-04-08T20:05:16.242Z,6.30
2023-04-08T20:07:45.303Z,6.93
2023-04-08T20:10:14.702Z,6.55
2023-04-08T20:12:45.210Z,6.45
2023-04-08T20:15:24.163Z,6.38
2023-04-08T20:17:54.962Z,5.78
2023-04-08T20:20:24.183Z,6.88
2023-04-08T20:22:53.719Z,5.68
2023-04-08T20:25:23.016Z,5.88
2023-04-08T20:27:53.437Z,6.78
2023-04-08T20:30:22.813Z,5.87
2023-04-08T20:32:51.888Z,6.18
2023-04-08T20:35:22.168Z,5.20
2023-04-08T20:37:51.353Z,5.07
2023-04-08T20:40:20.705Z,6.28
2023-04-08T20:42:49.958Z,5.82
2023-04-08T20:45:20.763Z,5.20
2023-04-08T20:47:54.172Z,5.15
2023-04-08T20:50:28.657Z,5.57
2023-04-08T20:52:58.487Z,5.57
2023-04-08T20:55:27.673Z,4.82
2023-04-08T20:57:56.711Z,5.65
2023-04-08T21:00:27.232Z,5.13
2023-04-08T21:02:56.445Z,5.10
2023-04-08T21:05:25.630Z,5.55
2023-04-08T21:07:54.724Z,5.40
2023-04-08T21:10:24.141Z,5.13
2023-04-08T21:12:53.358Z,5.63
2023-04-08T21:15:22.579Z,5.07
2023-04-08T21:17:53.044Z,5.28
2023-04-08T21:20:22.527Z,4.33
2023-04-08T21:22:51.817Z,4.97
2023-04-08T21:25:20.908Z,4.85
2023-04-08T21:27:50.014Z,5.22
2023-04-08T21:30:19.348Z,4.40
2023-04-08T21:32:49.213Z,4.82
2023-04-08T21:35:19.607Z,4.60
2023-04-08T21:37:48.618Z,4.90
2023-04-08T21:40:18.214Z,4.10
2023-04-08T21:42:47.275Z,3.88
2023-04-08T21:45:17.074Z,3.80
2023-04-08T21:47:46.286Z,3.88
2023-04-08T21:50:15.378Z,3.65
2023-04-08T21:52:45.876Z,4.05
2023-04-08T21:55:15.525Z,3.47
2023-04-08T21:57:44.519Z,3.75
2023-04-08T22:00:14.930Z,3.33
2023-04-08T22:02:47.647Z,3.58
2023-04-08T22:05:16.748Z,3.60
2023-04-08T22:07:47.134Z,3.72
2023-04-08T22:10:16.415Z,3.13
2023-04-08T22:12:46.034Z,3.63
2023-04-08T22:15:15.081Z,3.35
2023-04-08T22:17:44.121Z,4.45
2023-04-08T22:20:13.597Z,3.50
2023-04-08T22:22:42.599Z,3.72
2023-04-08T22:25:13.302Z,3.30
2023-04-08T22:27:42.434Z,3.65
2023-04-08T22:30:12.196Z,3.97
2023-04-08T22:32:41.351Z,2.88
2023-04-08T22:35:11.039Z,3.28
2023-04-08T22:37:42.571Z,3.55
2023-04-08T22:40:13.543Z,3.00
2023-04-08T22:42:42.537Z,3.25
2023-04-08T22:45:12.284Z,3.35
2023-04-08T22:47:41.331Z,3.45
2023-04-08T22:50:11.134Z,3.58
2023-04-08T22:52:40.452Z,2.92
2023-04-08T22:55:10.445Z,3.28
2023-04-08T22:57:41.152Z,2.70
2023-04-08T23:00:12.447Z,3.55
2023-04-08T23:05:11.038Z,3.10
2023-04-08T23:07:40.042Z,3.38
2023-04-08T23:10:10.146Z,2.90
2023-04-08T23:12:40.556Z,3.15
2023-04-08T23:15:10.103Z,2.90
2023-04-08T23:17:39.255Z,2.70
2023-04-08T23:20:09.429Z,3.00
2023-04-08T23:22:38.427Z,3.70
2023-04-08T23:25:08.644Z,3.00
2023-04-08T23:27:37.721Z,3.13
2023-04-08T23:30:09.492Z,3.20
2023-04-08T23:32:38.649Z,2.92
2023-04-08T23:35:09.800Z,3.22
2023-04-08T23:37:38.865Z,3.65
2023-04-08T23:40:09.589Z,3.25
2023-04-08T23:42:38.585Z,3.75
2023-04-08T23:45:09.886Z,3.50
2023-04-08T23:47:41.829Z,3.80
2023-04-08T23:50:11.425Z,3.08
2023-04-08T23:52:40.520Z,3.33
2023-04-08T23:55:10.176Z,3.40
2023-04-08T23:57:39.209Z,3.80
